createdAt,value
2023-04-21T00:00:33.534Z,25.00
2023-04-21T00:01:37.369Z,24.25
2023-04-21T00:02:39.676Z,24.25
2023-04-21T00:03:42.923Z,27.75
2023-04-21T00:04:45.736Z,24.50
2023-04-21T00:05:48.749Z,27.25
2023-04-21T00:06:50.744Z,21.75
2023-04-21T00:07:53.150Z,22.75
2023-04-21T00:08:54.810Z,22.00
2023-04-21T00:09:57.209Z,28.25
2023-04-21T00:10:58.625Z,23.75
2023-04-21T00:12:01.564Z,24.00
2023-04-21T00:13:03.008Z,18.00
2023-04-21T00:14:05.498Z,21.00
2023-04-21T00:15:07.669Z,21.50
2023-04-21T00:16:10.256Z,23.75
2023-04-21T00:17:13.205Z,18.50
2023-04-21T00:18:16.243Z,18.00
2023-04-21T00:19:18.544Z,19.00
2023-04-21T00:20:21.226Z,21.50
2023-04-21T00:21:22.633Z,21.50
2023-04-21T00:22:25.133Z,18.50
2023-04-21T00:23:26.533Z,23.00
2023-04-21T00:24:29.006Z,18.50
2023-04-21T00:25:30.484Z,21.50
2023-04-21T00:26:32.880Z,16.00
2023-04-21T00:27:34.365Z,19.75
2023-04-21T00:28:36.786Z,20.50
2023-04-21T00:29:39.129Z,19.25
2023-04-21T00:30:41.513Z,24.25
2023-04-21T00:31:43.090Z,27.25
2023-04-21T00:32:47.005Z,21.00
2023-04-21T00:33:48.419Z,20.00
2023-04-21T00:34:50.828Z,23.00
2023-04-21T00:35:54.334Z,21.00
2023-04-21T00:36:56.818Z,18.00
2023-04-21T00:37:58.301Z,18.00
2023-04-21T00:39:00.750Z,15.50
2023-04-21T00:40:02.172Z,17.00
2023-04-21T00:41:04.662Z,15.75
2023-04-21T00:42:06.120Z,16.75
2023-04-21T00:43:08.622Z,16.00
2023-04-21T00:44:10.263Z,18.25
2023-04-21T00:45:14.728Z,18.50
2023-04-21T00:46:16.255Z,16.25
2023-04-21T00:47:18.745Z,18.75
2023-04-21T00:48:21.749Z,19.00
2023-04-21T00:49:24.190Z,15.00
2023-04-21T00:50:25.729Z,20.00
2023-04-21T00:51:28.454Z,21.25
2023-04-21T00:52:29.935Z,18.00
2023-04-21T00:53:32.374Z,17.50
2023-04-21T00:54:35.201Z,21.00
2023-04-21T00:55:37.677Z,18.75
2023-04-21T00:56:39.092Z,22.50
2023-04-21T00:57:41.521Z,18.75
2023-04-21T00:58:43.244Z,19.25
2023-04-21T00:59:45.752Z,22.50
2023-04-21T01:00:47.615Z,23.25
2023-04-21T01:01:50.103Z,20.50
2023-04-21T01:02:51.681Z,22.00
2023-04-21T01:03:56.181Z,22.25
2023-04-21T01:04:57.773Z,23.00
2023-04-21T01:06:00.412Z,26.25
2023-04-21T01:07:01.849Z,25.75
2023-04-21T01:08:04.261Z,23.00
2023-04-21T01:09:05.904Z,25.75
2023-04-21T01:10:09.111Z,27.25
2023-04-21T01:11:11.084Z,25.00
2023-04-21T01:12:13.500Z,24.75
2023-04-21T01:13:14.931Z,31.50
2023-04-21T01:14:17.397Z,26.50
2023-04-21T01:15:18.848Z,23.50
2023-04-21T01:16:21.676Z,27.50
2023-04-21T01:17:23.284Z,28.50
2023-04-21T01:18:26.083Z,27.25
2023-04-21T01:19:31.280Z,29.50
2023-04-21T01:20:33.761Z,28.75
2023-04-21T01:21:40.595Z,32.25
2023-04-21T01:22:44.485Z,30.75
2023-04-21T01:23:45.930Z,27.00
2023-04-21T01:24:48.935Z,29.25
2023-04-21T01:25:50.348Z,30.50
2023-04-21T01:26:52.747Z,35.75
2023-04-21T01:27:54.189Z,35.25
2023-04-21T01:28:57.374Z,33.00
2023-04-21T01:29:58.848Z,31.00
2023-04-21T01:31:01.398Z,31.75
2023-04-21T01:32:06.488Z,30.50
2023-04-21T01:33:09.019Z,31.50
2023-04-21T01:34:10.477Z,36.00
2023-04-21T01:35:12.907Z,31.50
2023-04-21T01:36:14.314Z,39.50
2023-04-21T01:37:18.551Z,31.25
2023-04-21T01:38:19.983Z,32.00
2023-04-21T01:39:22.440Z,37.50
2023-04-21T01:40:24.854Z,34.25
2023-04-21T01:41:26.351Z,34.00
2023-04-21T01:42:28.944Z,40.50
2023-04-21T01:43:30.444Z,40.00
2023-04-21T01:44:32.784Z,37.00
2023-04-21T01:45:34.336Z,35.75
2023-04-21T01:46:36.771Z,37.50
2023-04-21T01:47:38.237Z,41.25
2023-04-21T01:48:40.634Z,36.25
2023-04-21T01:49:42.001Z,36.25
2023-04-21T01:50:44.535Z,32.00
2023-04-21T01:51:45.936Z,38.75
2023-04-21T01:52:49.649Z,36.25
2023-04-21T01:53:51.065Z,34.50
2023-04-21T01:54:53.406Z,35.50
2023-04-21T01:55:54.870Z,39.50
2023-04-21T01:56:57.841Z,36.25
2023-04-21T01:57:59.515Z,41.25
2023-04-21T01:59:02.297Z,37.75
2023-04-21T02:00:04.006Z,40.00
2023-04-21T02:01:06.471Z,38.25
2023-04-21T02:02:08.194Z,34.25
2023-04-21T02:03:10.889Z,35.25
2023-04-21T02:04:12.488Z,38.00
2023-04-21T02:05:14.983Z,39.50
2023-04-21T02:06:17.844Z,40.25
2023-04-21T02:07:20.236Z,32.75
2023-04-21T02:08:22.986Z,40.00
2023-04-21T02:09:25.713Z,36.50
2023-04-21T02:10:27.164Z,32.50
2023-04-21T02:11:29.589Z,38.50
2023-04-21T02:12:30.995Z,37.50
2023-04-21T02:13:33.352Z,37.50
2023-04-21T02:14:34.755Z,35.50
2023-04-21T02:15:38.181Z,35.00
2023-04-21T02:16:39.741Z,32.75
2023-04-21T02:17:42.963Z,34.00
2023-04-21T02:18:44.568Z,36.50
2023-04-21T02:19:47.795Z,34.25
2023-04-21T02:20:49.187Z,33.50
2023-04-21T02:21:51.727Z,32.00
2023-04-21T02:22:53.111Z,35.50
2023-04-21T02:23:56.812Z,33.50
2023-04-21T02:24:58.205Z,33.50
2023-04-21T02:26:00.583Z,36.50
2023-04-21T02:27:02.327Z,31.75
2023-04-21T02:28:04.814Z,33.00
2023-04-21T02:29:06.297Z,37.75
2023-04-21T02:30:09.210Z,31.25
2023-04-21T02:31:10.609Z,35.75
2023-04-21T02:32:24.898Z,33.25
2023-04-21T02:33:27.189Z,30.00
2023-04-21T02:34:29.720Z,33.25
2023-04-21T02:35:31.132Z,30.50
2023-04-21T02:36:33.537Z,31.25
2023-04-21T02:37:35.242Z,33.50
2023-04-21T02:38:37.615Z,32.00
2023-04-21T02:39:40.372Z,27.75
2023-04-21T02:40:42.761Z,37.50
2023-04-21T02:41:44.249Z,29.75
2023-04-21T02:42:46.640Z,33.75
2023-04-21T02:43:48.136Z,35.25
2023-04-21T02:44:50.691Z,33.50
2023-04-21T02:45:52.109Z,37.00
2023-04-21T02:46:54.602Z,31.75
2023-04-21T02:47:56.259Z,38.75
2023-04-21T02:48:58.714Z,34.50
2023-04-21T02:50:00.175Z,32.00
2023-04-21T02:51:02.576Z,31.50
2023-04-21T02:52:03.969Z,30.25
2023-04-21T02:53:06.429Z,32.00
2023-04-21T02:54:07.928Z,36.50
2023-04-21T02:55:11.744Z,33.50
2023-04-21T02:56:13.181Z,34.25
2023-04-21T02:57:15.537Z,33.75
2023-04-21T02:58:17.012Z,34.25
2023-04-21T02:59:19.804Z,32.75
2023-04-21T03:00:21.694Z,34.00
2023-04-21T03:01:24.121Z,35.75
2023-04-21T03:02:26.409Z,38.50
2023-04-21T03:03:29.059Z,36.50
2023-04-21T03:04:32.343Z,31.00
2023-04-21T03:05:34.927Z,34.25
2023-04-21T03:06:36.880Z,34.00
2023-04-21T03:07:39.281Z,37.00
2023-04-21T03:08:40.806Z,35.25
2023-04-21T03:09:43.178Z,36.00
2023-04-21T03:10:45.938Z,39.25
2023-04-21T03:11:48.377Z,31.75
2023-04-21T03:12:49.759Z,34.00
2023-04-21T03:13:52.198Z,35.25
2023-04-21T03:14:53.567Z,40.00
2023-04-21T03:15:55.922Z,37.25
2023-04-21T03:16:57.465Z,34.25
2023-04-21T03:17:59.874Z,32.25
2023-04-21T03:19:01.577Z,37.75
2023-04-21T03:20:07.025Z,35.00
2023-04-21T03:21:08.445Z,31.75
2023-04-21T03:22:10.877Z,36.50
2023-04-21T03:23:12.313Z,37.00
2023-04-21T03:24:14.850Z,33.50
2023-04-21T03:25:16.249Z,34.00
2023-04-21T03:26:19.951Z,34.25
2023-04-21T03:27:21.339Z,39.25
2023-04-21T03:28:23.717Z,42.25
2023-04-21T03:29:25.250Z,33.25
2023-04-21T03:30:27.688Z,39.00
2023-04-21T03:31:29.180Z,37.75
2023-04-21T03:32:31.564Z,38.00
2023-04-21T03:33:32.975Z,40.75
2023-04-21T03:34:35.397Z,35.50
2023-04-21T03:35:37.003Z,39.50
2023-04-21T03:36:39.336Z,36.75
2023-04-21T03:37:40.721Z,37.50
2023-04-21T03:38:43.075Z,37.25
2023-04-21T03:39:44.523Z,36.25
2023-04-21T03:40:46.881Z,37.00
2023-04-21T03:41:49.620Z,38.50
2023-04-21T03:42:51.990Z,38.25
2023-04-21T03:43:53.404Z,35.75
2023-04-21T03:44:55.918Z,41.50
2023-04-21T03:45:57.377Z,41.00
2023-04-21T03:46:59.970Z,41.50
2023-04-21T03:48:01.422Z,42.00
2023-04-21T03:49:03.951Z,38.25
2023-04-21T03:50:05.978Z,42.75
2023-04-21T03:51:08.350Z,35.25
2023-04-21T03:52:09.797Z,41.75
2023-04-21T03:53:12.156Z,39.75
2023-04-21T03:54:14.498Z,38.75
2023-04-21T03:55:16.957Z,43.25
2023-04-21T03:56:18.353Z,40.00
2023-04-21T03:57:22.086Z,38.75
2023-04-21T03:58:23.477Z,42.75
2023-04-21T03:59:25.912Z,37.25
2023-04-21T04:00:27.366Z,41.50
2023-04-21T04:01:29.717Z,40.75
2023-04-21T04:02:32.225Z,42.00
2023-04-21T04:03:33.816Z,37.50
2023-04-21T04:04:36.590Z,40.50
2023-04-21T04:05:38.491Z,37.50
2023-04-21T04:06:41.023Z,39.25
2023-04-21T04:07:42.471Z,38.75
2023-04-21T04:08:44.834Z,36.75
2023-04-21T04:09:46.242Z,40.50
2023-04-21T04:10:48.604Z,39.50
2023-04-21T04:11:50.010Z,42.00
2023-04-21T04:12:55.128Z,43.75
2023-04-21T04:13:56.519Z,42.00
2023-04-21T04:14:58.898Z,45.00
2023-04-21T04:16:00.451Z,44.00
2023-04-21T04:17:03.088Z,41.75
2023-04-21T04:18:04.588Z,41.00
2023-04-21T04:19:07.010Z,46.25
2023-04-21T04:20:08.706Z,48.25
2023-04-21T04:21:11.118Z,50.25
2023-04-21T04:22:12.512Z,52.75
2023-04-21T04:23:14.858Z,53.00
2023-04-21T04:24:16.268Z,48.75
2023-04-21T04:25:18.682Z,49.75
2023-04-21T04:26:20.122Z,51.50
2023-04-21T04:27:23.019Z,51.50
2023-04-21T04:28:25.811Z,48.75
2023-04-21T04:29:28.169Z,47.75
2023-04-21T04:30:29.561Z,51.50
2023-04-21T04:31:32.542Z,49.75
2023-04-21T04:32:34.055Z,51.75
2023-04-21T04:33:36.408Z,50.50
2023-04-21T04:34:37.885Z,45.75
2023-04-21T04:35:40.313Z,48.75
2023-04-21T04:36:42.272Z,49.75
2023-04-21T04:37:45.459Z,48.00
2023-04-21T04:38:46.866Z,53.25
2023-04-21T04:39:50.351Z,55.25
2023-04-21T04:40:54.747Z,52.75
2023-04-21T04:41:57.109Z,52.25
2023-04-21T04:42:58.509Z,52.50
2023-04-21T04:44:04.512Z,48.75
2023-04-21T04:45:08.177Z,49.00
2023-04-21T04:46:12.989Z,47.50
2023-04-21T04:47:14.671Z,44.75
2023-04-21T04:48:17.186Z,45.25
2023-04-21T04:49:18.571Z,42.25
2023-04-21T04:50:21.282Z,43.75
2023-04-21T04:51:23.242Z,49.50
2023-04-21T04:52:25.603Z,51.75
2023-04-21T04:53:27.862Z,51.25
2023-04-21T04:54:30.223Z,55.25
2023-04-21T04:55:31.626Z,59.00
2023-04-21T04:56:34.058Z,60.50
2023-04-21T04:57:35.476Z,52.25
2023-04-21T04:58:37.841Z,51.25
2023-04-21T04:59:40.629Z,54.75
2023-04-21T05:00:42.973Z,53.75
2023-04-21T05:01:44.543Z,51.75
2023-04-21T05:02:47.158Z,54.75
2023-04-21T05:03:48.853Z,56.00
2023-04-21T05:04:51.452Z,62.25
2023-04-21T05:05:54.150Z,67.00
2023-04-21T05:06:56.540Z,69.75
2023-04-21T05:07:58.020Z,78.50
2023-04-21T05:09:00.425Z,73.25
2023-04-21T05:10:02.451Z,72.50
2023-04-21T05:11:04.867Z,64.75
2023-04-21T05:12:06.414Z,71.75
2023-04-21T05:13:08.773Z,69.00
2023-04-21T05:14:10.240Z,65.75
2023-04-21T05:15:14.006Z,67.75
2023-04-21T05:16:15.501Z,67.00
2023-04-21T05:17:17.997Z,67.75
2023-04-21T05:18:19.372Z,64.00
2023-04-21T05:19:21.735Z,65.50
2023-04-21T05:20:23.138Z,64.75
2023-04-21T05:21:27.449Z,59.00
2023-04-21T05:22:29.027Z,60.00
2023-04-21T05:23:31.392Z,57.00
2023-04-21T05:24:32.789Z,56.25
2023-04-21T05:25:35.300Z,46.00
2023-04-21T05:26:36.699Z,44.50
2023-04-21T05:27:39.085Z,44.00
2023-04-21T05:28:40.483Z,41.75
2023-04-21T05:29:42.844Z,44.00
2023-04-21T05:30:45.803Z,43.50
2023-04-21T05:31:48.251Z,45.25
2023-04-21T05:32:49.798Z,44.00
2023-04-21T05:33:52.273Z,44.00
2023-04-21T05:34:53.669Z,42.75
2023-04-21T05:35:56.191Z,39.75
2023-04-21T05:36:58.562Z,44.00
2023-04-21T05:38:00.044Z,43.75
2023-04-21T05:39:02.400Z,40.50
2023-04-21T05:40:04.009Z,43.25
2023-04-21T05:41:06.696Z,41.25
2023-04-21T05:42:10.380Z,44.00
2023-04-21T05:43:11.964Z,43.50
2023-04-21T05:44:14.425Z,42.75
2023-04-21T05:45:15.919Z,43.75
2023-04-21T05:46:19.689Z,44.00
2023-04-21T05:47:21.207Z,37.50
2023-04-21T05:48:24.427Z,38.75
2023-04-21T05:49:26.789Z,40.25
2023-04-21T05:50:33.889Z,40.00
2023-04-21T05:51:36.397Z,38.75
2023-04-21T05:52:37.944Z,44.75
2023-04-21T05:53:40.474Z,40.75
2023-04-21T05:54:42.655Z,41.25
2023-04-21T05:55:45.102Z,41.25
2023-04-21T05:56:48.270Z,41.75
2023-04-21T05:57:49.704Z,43.50
2023-04-21T05:58:52.199Z,41.00
2023-04-21T05:59:53.725Z,42.75
2023-04-21T06:00:56.190Z,44.50
2023-04-21T06:01:59.074Z,41.00
2023-04-21T06:03:01.714Z,42.00
2023-04-21T06:04:03.526Z,37.50
2023-04-21T06:05:06.726Z,36.50
2023-04-21T06:06:09.141Z,37.25
2023-04-21T06:07:13.501Z,41.25
2023-04-21T06:08:14.938Z,36.75
2023-04-21T06:09:17.540Z,43.75
2023-04-21T06:10:19.269Z,42.50
2023-04-21T06:11:22.161Z,39.00
2023-04-21T06:12:23.573Z,39.50
2023-04-21T06:13:27.390Z,41.00
2023-04-21T06:14:29.032Z,41.75
2023-04-21T06:15:31.397Z,43.00
2023-04-21T06:16:34.201Z,41.00
2023-04-21T06:17:38.109Z,40.25
2023-04-21T06:18:40.744Z,38.75
2023-04-21T06:19:43.358Z,42.75
2023-04-21T06:20:50.759Z,38.00
2023-04-21T06:21:52.288Z,37.50
2023-04-21T06:22:54.855Z,43.75
2023-04-21T06:23:56.249Z,41.75
2023-04-21T06:25:00.074Z,43.50
2023-04-21T06:26:04.209Z,40.00
2023-04-21T06:27:10.576Z,37.75
2023-04-21T06:28:12.006Z,39.75
2023-04-21T06:29:14.345Z,42.00
2023-04-21T06:30:15.828Z,40.00
2023-04-21T06:31:19.795Z,44.25
2023-04-21T06:32:21.654Z,41.25
2023-04-21T06:33:25.449Z,40.50
2023-04-21T06:34:27.811Z,39.00
2023-04-21T06:35:29.396Z,36.25
2023-04-21T06:36:32.975Z,41.00
2023-04-21T06:37:34.478Z,38.00
2023-04-21T06:38:36.889Z,36.75
2023-04-21T06:39:38.303Z,40.00
2023-04-21T06:40:40.698Z,40.50
2023-04-21T06:41:42.096Z,42.00
2023-04-21T06:42:44.445Z,35.00
2023-04-21T06:43:46.801Z,34.25
2023-04-21T06:44:50.973Z,41.00
2023-04-21T06:45:52.488Z,39.25
2023-04-21T06:46:54.870Z,39.75
2023-04-21T06:47:59.218Z,41.50
2023-04-21T06:49:03.057Z,41.75
2023-04-21T06:50:04.794Z,42.25
2023-04-21T06:51:07.331Z,38.75
2023-04-21T06:52:09.727Z,43.75
2023-04-21T06:53:11.348Z,43.50
2023-04-21T06:54:13.726Z,43.50
2023-04-21T06:55:15.200Z,42.50
2023-04-21T06:56:17.654Z,45.50
2023-04-21T06:57:19.029Z,45.75
2023-04-21T06:58:21.867Z,46.25
2023-04-21T06:59:23.255Z,47.75
2023-04-21T07:00:25.648Z,46.00
2023-04-21T07:01:27.159Z,43.75
2023-04-21T07:02:29.700Z,47.50
2023-04-21T07:03:31.313Z,46.00
2023-04-21T07:04:35.096Z,42.00
2023-04-21T07:05:36.615Z,45.00
2023-04-21T07:06:39.033Z,43.50
2023-04-21T07:07:40.569Z,43.00
2023-04-21T07:08:43.060Z,50.75
2023-04-21T07:09:47.258Z,44.00
2023-04-21T07:10:49.708Z,43.25
2023-04-21T07:11:51.179Z,42.25
2023-04-21T07:12:53.596Z,43.00
2023-04-21T07:13:56.052Z,40.50
2023-04-21T07:14:57.442Z,42.00
2023-04-21T07:15:59.841Z,43.50
2023-04-21T07:17:02.385Z,43.50
2023-04-21T07:18:03.989Z,38.75
2023-04-21T07:19:06.411Z,42.00
2023-04-21T07:20:09.847Z,42.00
2023-04-21T07:21:12.204Z,42.50
2023-04-21T07:22:13.794Z,43.75
2023-04-21T07:23:16.219Z,42.00
2023-04-21T07:24:17.603Z,46.00
2023-04-21T07:25:20.149Z,47.25
2023-04-21T07:26:22.541Z,41.50
2023-04-21T07:27:24.049Z,41.50
2023-04-21T07:28:26.542Z,43.50
2023-04-21T07:29:28.031Z,46.25
2023-04-21T07:30:30.630Z,43.75
2023-04-21T07:31:32.067Z,48.50
2023-04-21T07:32:35.314Z,44.75
2023-04-21T07:33:36.786Z,46.25
2023-04-21T07:34:39.172Z,45.50
2023-04-21T07:35:42.001Z,41.50
2023-04-21T07:36:44.459Z,46.75
2023-04-21T07:37:46.066Z,43.75
2023-04-21T07:38:48.971Z,43.50
2023-04-21T07:39:51.362Z,44.75
2023-04-21T07:40:52.946Z,45.25
2023-04-21T07:41:55.825Z,45.00
2023-04-21T07:42:58.355Z,42.25
2023-04-21T07:43:59.885Z,45.50
2023-04-21T07:45:02.628Z,46.00
2023-04-21T07:46:05.142Z,46.75
2023-04-21T07:47:07.584Z,46.00
2023-04-21T07:48:10.236Z,46.25
2023-04-21T07:49:11.681Z,43.50
2023-04-21T07:50:14.216Z,43.50
2023-04-21T07:51:18.051Z,41.00
2023-04-21T07:52:20.529Z,44.25
2023-04-21T07:53:23.055Z,44.50
2023-04-21T07:54:24.479Z,43.00
2023-04-21T07:55:26.837Z,43.50
2023-04-21T07:56:28.315Z,43.00
2023-04-21T07:57:31.849Z,43.50
2023-04-21T07:58:33.870Z,42.25
2023-04-21T07:59:36.659Z,46.25
2023-04-21T08:00:38.066Z,43.25
2023-04-21T08:01:41.200Z,44.50
2023-04-21T08:02:43.734Z,43.00
2023-04-21T08:03:45.486Z,45.00
2023-04-21T08:04:48.310Z,41.75
2023-04-21T08:05:51.038Z,45.50
2023-04-21T08:06:55.294Z,45.50
2023-04-21T08:07:56.816Z,44.75
2023-04-21T08:08:59.486Z,42.50
2023-04-21T08:10:01.179Z,41.75
2023-04-21T08:11:03.562Z,42.25
2023-04-21T08:12:06.028Z,45.50
2023-04-21T08:13:07.678Z,40.50
2023-04-21T08:14:11.963Z,41.25
2023-04-21T08:15:14.356Z,42.00
2023-04-21T08:16:15.864Z,42.25
2023-04-21T08:17:18.319Z,43.50
2023-04-21T08:18:22.268Z,44.25
2023-04-21T08:19:25.211Z,43.25
2023-04-21T08:20:28.207Z,43.00
2023-04-21T08:21:31.293Z,42.75
2023-04-21T08:22:36.549Z,44.75
2023-04-21T08:23:38.002Z,42.50
2023-04-21T08:24:40.476Z,43.00
2023-04-21T08:25:41.965Z,44.25
2023-04-21T08:26:44.919Z,39.75
2023-04-21T08:27:46.500Z,43.50
2023-04-21T08:28:50.405Z,41.50
2023-04-21T08:29:52.902Z,44.25
2023-04-21T08:30:54.290Z,41.25
2023-04-21T08:31:57.816Z,42.25
2023-04-21T08:33:01.105Z,41.25
2023-04-21T08:34:03.144Z,40.25
2023-04-21T08:35:06.606Z,40.75
2023-04-21T08:36:15.348Z,41.50
2023-04-21T08:37:27.126Z,43.00
2023-04-21T08:38:29.965Z,44.00
2023-04-21T08:39:32.571Z,39.50
2023-04-21T08:40:36.910Z,43.50
2023-04-21T08:41:39.749Z,41.25
2023-04-21T08:42:42.894Z,44.00
2023-04-21T08:43:44.271Z,40.00
2023-04-21T08:44:46.638Z,46.00
2023-04-21T08:45:49.087Z,42.50
2023-04-21T08:46:50.535Z,42.25
2023-04-21T08:47:52.936Z,43.25
2023-04-21T08:48:55.478Z,41.75
2023-04-21T08:49:58.012Z,43.25
2023-04-21T08:50:59.503Z,40.50
2023-04-21T08:52:01.885Z,44.75
2023-04-21T08:53:04.260Z,42.50
2023-04-21T08:54:07.876Z,44.25
2023-04-21T08:55:10.814Z,44.25
2023-04-21T08:56:12.462Z,41.50
2023-04-21T08:57:16.157Z,41.50
2023-04-21T08:58:17.756Z,42.50
2023-04-21T08:59:21.387Z,44.00
2023-04-21T09:00:26.681Z,42.00
2023-04-21T09:01:29.272Z,42.00
2023-04-21T09:02:33.969Z,38.75
2023-04-21T09:03:36.261Z,42.00
2023-04-21T09:04:40.423Z,45.75
2023-04-21T09:05:43.360Z,44.00
2023-04-21T09:06:46.472Z,38.25
2023-04-21T09:07:49.398Z,44.00
2023-04-21T09:08:56.692Z,42.50
2023-04-21T09:10:00.492Z,42.50
2023-04-21T09:11:03.121Z,41.00
2023-04-21T09:12:04.948Z,43.50
2023-04-21T09:13:07.654Z,40.25
2023-04-21T09:14:13.327Z,38.25
2023-04-21T09:15:16.127Z,41.00
2023-04-21T09:16:20.194Z,41.50
2023-04-21T09:17:22.941Z,39.25
2023-04-21T09:18:28.901Z,40.50
2023-04-21T09:19:31.385Z,41.25
2023-04-21T09:20:36.116Z,41.00
2023-04-21T09:21:40.389Z,41.50
2023-04-21T09:22:43.627Z,42.75
2023-04-21T09:23:46.704Z,40.50
2023-04-21T09:24:49.773Z,41.75
2023-04-21T09:25:53.818Z,35.25
2023-04-21T09:26:55.229Z,39.00
2023-04-21T09:27:58.391Z,37.00
2023-04-21T09:29:00.909Z,42.25
2023-04-21T09:30:04.554Z,37.75
2023-04-21T09:31:06.278Z,38.25
2023-04-21T09:32:10.419Z,40.25
2023-04-21T09:33:29.024Z,39.75
2023-04-21T09:34:35.394Z,39.75
2023-04-21T09:35:39.345Z,41.00
2023-04-21T09:36:41.192Z,38.50
2023-04-21T09:37:44.178Z,42.00
2023-04-21T09:38:47.917Z,40.50
2023-04-21T09:40:04.264Z,38.25
2023-04-21T09:41:09.149Z,42.00
2023-04-21T09:42:10.610Z,38.75
2023-04-21T09:43:12.988Z,39.75
2023-04-21T09:44:14.462Z,41.50
2023-04-21T09:45:36.501Z,37.00
2023-04-21T09:46:40.393Z,38.25
2023-04-21T09:47:42.615Z,41.00
2023-04-21T09:48:45.444Z,41.25
2023-04-21T09:49:47.808Z,36.50
2023-04-21T09:52:59.768Z,41.75
2023-04-21T09:54:01.253Z,38.25
2023-04-21T09:55:04.186Z,42.75
2023-04-21T09:56:06.815Z,41.00
2023-04-21T09:57:09.547Z,40.00
2023-04-21T09:58:11.917Z,41.50
2023-04-21T09:59:14.609Z,40.75
2023-04-21T10:00:17.609Z,42.25
2023-04-21T10:01:19.072Z,39.50
2023-04-21T10:02:21.909Z,40.25
2023-04-21T10:03:25.200Z,41.25
2023-04-21T10:04:27.422Z,44.00
2023-04-21T10:05:30.284Z,40.50
2023-04-21T10:06:31.963Z,37.25
2023-04-21T10:07:34.317Z,39.25
2023-04-21T10:08:36.019Z,38.75
2023-04-21T10:09:39.664Z,37.75
2023-04-21T10:10:42.047Z,38.75
2023-04-21T10:11:43.437Z,43.00
2023-04-21T10:12:47.203Z,35.00
2023-04-21T10:13:48.598Z,38.25
2023-04-21T10:14:54.041Z,36.00
2023-04-21T10:16:01.591Z,43.25
2023-04-21T10:17:05.029Z,41.75
2023-04-21T10:18:13.744Z,40.00
2023-04-21T10:19:25.821Z,36.50
2023-04-21T10:20:27.336Z,39.25
2023-04-21T10:21:29.810Z,41.00
2023-04-21T10:22:32.566Z,37.00
2023-04-21T10:23:37.562Z,41.00
2023-04-21T10:24:40.254Z,38.00
2023-04-21T10:25:41.680Z,40.00
2023-04-21T10:26:44.050Z,43.25
2023-04-21T10:27:47.812Z,41.25
2023-04-21T10:28:53.914Z,40.75
2023-04-21T10:29:56.989Z,41.75
2023-04-21T10:31:12.843Z,37.25
2023-04-21T10:32:15.425Z,37.50
2023-04-21T10:33:17.460Z,41.25
2023-04-21T10:34:21.095Z,41.50
2023-04-21T10:35:23.809Z,40.50
2023-04-21T10:36:25.298Z,41.75
2023-04-21T10:37:27.694Z,39.00
2023-04-21T10:38:35.554Z,37.25
2023-04-21T10:39:38.539Z,40.50
2023-04-21T10:40:44.267Z,38.25
2023-04-21T10:41:46.375Z,39.75
2023-04-21T10:42:50.196Z,42.25
2023-04-21T10:43:51.638Z,38.50
2023-04-21T10:45:06.236Z,38.25
2023-04-21T10:46:23.632Z,35.25
2023-04-21T10:47:25.263Z,38.75
2023-04-21T10:48:27.678Z,37.25
2023-04-21T10:49:30.228Z,35.00
2023-04-21T10:50:32.790Z,36.00
2023-04-21T10:51:35.796Z,39.75
2023-04-21T10:52:38.239Z,37.00
2023-04-21T10:53:44.052Z,38.50
2023-04-21T10:55:07.649Z,39.50
2023-04-21T10:56:10.246Z,39.25
2023-04-21T10:57:12.037Z,35.25
2023-04-21T10:58:16.583Z,36.75
2023-04-21T10:59:18.119Z,39.50
2023-04-21T11:00:20.974Z,38.50
2023-04-21T11:01:23.489Z,36.50
2023-04-21T11:02:25.119Z,40.50
2023-04-21T11:03:27.976Z,35.25
2023-04-21T11:04:30.160Z,41.50
2023-04-21T11:05:36.221Z,40.00
2023-04-21T11:06:37.814Z,38.00
2023-04-21T11:07:40.484Z,33.00
2023-04-21T11:08:55.736Z,38.50
2023-04-21T11:09:57.773Z,38.00
2023-04-21T11:11:00.194Z,36.25
2023-04-21T11:12:03.367Z,41.00
2023-04-21T11:13:05.742Z,35.50
2023-04-21T11:14:08.575Z,37.00
2023-04-21T11:15:19.400Z,37.25
2023-04-21T11:16:21.986Z,39.00
2023-04-21T11:17:24.510Z,33.50
2023-04-21T11:18:42.628Z,38.25
2023-04-21T11:19:45.171Z,36.75
2023-04-21T11:20:47.683Z,34.00
2023-04-21T11:21:49.087Z,36.50
2023-04-21T11:22:53.018Z,36.25
2023-04-21T11:23:55.835Z,33.50
2023-04-21T11:24:57.429Z,33.25
2023-04-21T11:26:00.199Z,39.00
2023-04-21T11:27:02.563Z,37.25
2023-04-21T11:28:04.877Z,36.00
2023-04-21T11:29:07.569Z,30.75
2023-04-21T11:30:12.627Z,35.50
2023-04-21T11:31:14.196Z,31.75
2023-04-21T11:32:17.036Z,35.00
2023-04-21T11:33:18.539Z,32.00
2023-04-21T11:34:21.334Z,29.00
2023-04-21T11:35:23.954Z,30.25
2023-04-21T11:36:25.445Z,29.00
2023-04-21T11:37:28.083Z,31.50
2023-04-21T11:38:36.434Z,33.50
2023-04-21T11:39:41.090Z,35.00
2023-04-21T11:40:47.439Z,34.75
2023-04-21T11:41:50.129Z,31.25
2023-04-21T11:42:52.488Z,32.75
2023-04-21T11:43:54.000Z,31.75
2023-04-21T11:44:57.108Z,29.75
2023-04-21T11:46:12.185Z,35.50
2023-04-21T11:47:15.004Z,31.25
2023-04-21T11:48:16.592Z,35.00
2023-04-21T11:49:18.985Z,33.00
2023-04-21T11:50:30.172Z,31.00
2023-04-21T11:51:35.671Z,32.25
2023-04-21T11:52:38.263Z,31.25
2023-04-21T11:53:39.661Z,31.75
2023-04-21T11:54:42.122Z,28.25
2023-04-21T11:55:45.006Z,30.75
2023-04-21T11:56:47.632Z,31.75
2023-04-21T11:57:51.103Z,29.00
2023-04-21T11:58:53.628Z,28.00
2023-04-21T11:59:56.282Z,28.00
2023-04-21T12:00:57.945Z,30.75
2023-04-21T12:02:01.844Z,33.75
2023-04-21T12:03:03.456Z,27.75
2023-04-21T12:04:06.268Z,30.00
2023-04-21T12:05:08.400Z,31.75
2023-04-21T12:06:11.085Z,29.00
2023-04-21T12:07:12.520Z,31.75
2023-04-21T12:08:15.838Z,32.00
2023-04-21T12:09:17.558Z,32.25
2023-04-21T12:10:20.515Z,31.75
2023-04-21T12:11:22.948Z,29.25
2023-04-21T12:12:25.398Z,32.50
2023-04-21T12:13:27.287Z,29.25
2023-04-21T12:14:29.691Z,30.50
2023-04-21T12:15:31.165Z,30.25
2023-04-21T12:16:33.587Z,31.00
2023-04-21T12:17:39.482Z,27.75
2023-04-21T12:18:42.318Z,32.50
2023-04-21T12:19:44.689Z,30.50
2023-04-21T12:20:49.126Z,33.25
2023-04-21T12:21:53.869Z,32.50
2023-04-21T12:22:56.434Z,31.00
2023-04-21T12:23:58.902Z,34.75
2023-04-21T12:25:00.293Z,27.75
2023-04-21T12:26:02.800Z,30.00
2023-04-21T12:27:04.304Z,31.50
2023-04-21T12:28:06.674Z,30.00
2023-04-21T12:29:08.123Z,29.50
2023-04-21T12:30:11.088Z,30.00
2023-04-21T12:31:12.616Z,30.25
2023-04-21T12:32:15.002Z,28.25
2023-04-21T12:33:17.879Z,26.25
2023-04-21T12:34:20.340Z,30.50
2023-04-21T12:35:22.024Z,31.25
2023-04-21T12:36:24.508Z,28.75
2023-04-21T12:37:25.939Z,32.00
2023-04-21T12:38:28.344Z,27.50
2023-04-21T12:39:30.274Z,32.25
2023-04-21T12:40:33.224Z,26.50
2023-04-21T12:41:35.743Z,28.50
2023-04-21T12:42:38.388Z,31.25
2023-04-21T12:43:40.963Z,29.50
2023-04-21T12:44:43.456Z,31.75
2023-04-21T12:45:44.930Z,31.50
2023-04-21T12:46:48.858Z,32.25
2023-04-21T12:47:51.406Z,32.25
2023-04-21T12:48:55.987Z,29.75
2023-04-21T12:49:57.462Z,33.50
2023-04-21T12:50:59.830Z,32.00
2023-04-21T12:52:05.323Z,30.00
2023-04-21T12:53:08.033Z,29.75
2023-04-21T12:54:09.432Z,29.50
2023-04-21T12:55:13.310Z,26.50
2023-04-21T12:56:15.735Z,31.00
2023-04-21T12:57:18.204Z,31.50
2023-04-21T12:58:19.597Z,34.75
2023-04-21T12:59:21.973Z,31.00
2023-04-21T13:00:23.372Z,29.25
2023-04-21T13:01:25.864Z,30.50
2023-04-21T13:02:27.640Z,29.25
2023-04-21T13:03:30.462Z,34.00
2023-04-21T13:04:34.730Z,29.00
2023-04-21T13:05:36.185Z,29.00
2023-04-21T13:06:39.365Z,31.75
2023-04-21T13:07:41.396Z,31.50
2023-04-21T13:08:43.840Z,30.25
2023-04-21T13:09:45.781Z,30.50
2023-04-21T13:10:48.155Z,28.75
2023-04-21T13:11:49.690Z,29.75
2023-04-21T13:12:52.246Z,32.25
2023-04-21T13:13:53.862Z,30.25
2023-04-21T13:14:56.469Z,33.25
2023-04-21T13:15:57.922Z,28.75
2023-04-21T13:17:00.315Z,30.50
2023-04-21T13:18:01.835Z,30.75
2023-04-21T13:19:04.829Z,32.25
2023-04-21T13:20:08.239Z,28.25
2023-04-21T13:21:10.735Z,29.25
2023-04-21T13:22:13.099Z,33.00
2023-04-21T13:23:16.251Z,31.50
2023-04-21T13:24:18.642Z,29.75
2023-04-21T13:25:20.131Z,33.00
2023-04-21T13:26:22.553Z,30.25
2023-04-21T13:27:24.932Z,29.50
2023-04-21T13:28:26.852Z,31.75
2023-04-21T13:29:32.971Z,31.75
2023-04-21T13:30:34.748Z,30.25